Time;durP1;ratioP1;P1;durP2;ratioP2;P2;SDS_P1;SDS_P2;PMS_P1;PMS_P2;Temp;Humidity;BMP_temperature;BMP_pressure;BME280_temperature;BME280_humidity;BME280_pressure;Samples;Min_cycle;Max_cycle;Signal;HPM_P1;HPM_P2
2022/11/07 00:00:29;;;;;;;;;;;;;;;;;;5014283;28;19945;-77
2022/11/07 00:02:55;;;;;;;;;;;;;;;;;;5012598;28;19960;-75
2022/11/07 00:05:21;;;;;;;;;;;;;;;;;;5013756;28;19910;-77
2022/11/07 00:07:47;;;;;;;;;;;;;;;;;;5012440;28;19909;-77
2022/11/07 00:10:13;;;;;;;;;;;;;;;;;;5012442;28;20000;-76
2022/11/07 00:12:38;;;;;;;;;;;;;;;;;;5012902;28;19944;-76
2022/11/07 00:15:05;;;;;;;;;;;;;;;;;;5012380;28;19909;-77
2022/11/07 00:17:30;;;;;;;;;;;;;;;;;;5012857;28;19916;-77
2022/11/07 00:19:56;;;;;;;;;;;;;;;;;;5012587;28;19910;-77
2022/11/07 00:22:22;;;;;;;;;;;;;;;;;;5013739;28;20297;-75
2022/11/07 00:24:48;;;;;;;;;;;;;;;;;;5029040;28;19909;-76
2022/11/07 00:27:14;;;;;;;;;;;;;;;;;;5028915;28;19921;-75
2022/11/07 00:29:40;;;;;;;;;;;;;;;;;;5028994;28;19932;-77
2022/11/07 00:32:06;;;;;;;;;;;;;;;;;;5013274;28;20000;-77
2022/11/07 00:34:34;;;;;;;;;;;;;;;;;;5028012;28;19911;-76
2022/11/07 00:36:59;;;;;;;;;;;;;;;;;;5028418;28;19916;-76
2022/11/07 00:39:25;;;;;;;;;;;;;;;;;;5028926;28;19909;-76
2022/11/07 00:41:51;;;;;;;;;;;;;;;;;;5013331;28;19917;-76
2022/11/07 00:44:17;;;;;;;;;;;;;;;;;;5028546;28;20000;-77
2022/11/07 00:46:43;;;;;;;;;;;;;;;;;;5013066;28;19913;-75
2022/11/07 00:49:09;;;;;;;;;;;;;;;;;;5028555;28;19976;-76
2022/11/07 00:51:35;;;;;;;;;;;;;;;;;;5028657;28;19905;-75
2022/11/07 00:54:01;;;;;;;;;;;;;;;;;;5013211;28;19916;-77
2022/11/07 00:56:26;;;;;;;;;;;;;;;;;;5028195;28;20028;-77
2022/11/07 00:58:52;;;;;;;;;;;;;;;;;;5028769;28;19917;-76
2022/11/07 01:01:21;;;;;;;;;;;;;;;;;;5028317;28;20333;-76
2022/11/07 01:06:32;;;;;;;;;;;;;;;;;;5013325;28;19916;-77
2022/11/07 01:08:58;;;;;;;;;;;;;;;;;;5013110;28;19909;-77
2022/11/07 01:11:24;;;;;;;;;;;;;;;;;;5013642;28;19909;-76
2022/11/07 01:13:50;;;;;;;;;;;;;;;;;;5012658;28;19921;-76
2022/11/07 01:16:15;;;;;;;;;;;;;;;;;;5028046;28;19916;-77
2022/11/07 01:18:41;;;;;;;;;;;;;;;;;;5012633;28;19956;-76
2022/11/07 01:21:07;;;;;;;;;;;;;;;;;;5028084;28;19922;-77
2022/11/07 01:23:33;;;;;;;;;;;;;;;;;;5028245;28;19910;-77
2022/11/07 01:25:59;;;;;;;;;;;;;;;;;;5012942;28;20341;-76
2022/11/07 01:28:25;;;;;;;;;;;;;;;;;;5012830;28;19910;-77
2022/11/07 01:30:51;;;;;;;;;;;;;;;;;;5032244;28;19912;-76
2022/11/07 01:33:17;;;;;;;;;;;;;;;;;;5016616;28;19952;-77
2022/11/07 01:35:43;;;;;;;;;;;;;;;;;;5016387;28;20012;-76
2022/11/07 01:38:08;;;;;;;;;;;;;;;;;;5016438;28;19910;-78
2022/11/07 01:41:19;;;;;;;;;;;;;;;;;;5016810;28;19906;-77
2022/11/07 01:43:20;;;;;;;;;;;;;;;;;;5016335;28;20451;-76
2022/11/07 01:45:46;;;;;;;;;;;;;;;;;;5016268;28;20007;-77
2022/11/07 01:48:12;;;;;;;;;;;;;;;;;;5031255;28;19914;-75
2022/11/07 01:50:38;;;;;;;;;;;;;;;;;;5031592;28;19917;-78
2022/11/07 01:53:04;;;;;;;;;;;;;;;;;;5031562;28;19960;-76
2022/11/07 01:55:30;;;;;;;;;;;;;;;;;;5031765;28;20013;-77
2022/11/07 01:57:55;;;;;;;;;;;;;;;;;;5031903;28;19909;-76
2022/11/07 02:00:21;;;;;;;;;;;;;;;;;;5015903;28;19916;-78
2022/11/07 02:02:47;;;;;;;;;;;;;;;;;;5030974;28;19922;-77
2022/11/07 02:05:13;;;;;;;;;;;;;;;;;;5031122;28;20408;-76
2022/11/07 02:07:39;;;;;;;;;;;;;;;;;;5031879;28;19955;-77
2022/11/07 02:10:05;;;;;;;;;;;;;;;;;;5031656;28;19979;-77
2022/11/07 02:12:31;;;;;;;;;;;;;;;;;;5015724;28;19920;-77
2022/11/07 02:14:57;;;;;;;;;;;;;;;;;;5030676;28;19932;-76
2022/11/07 02:17:23;;;;;;;;;;;;;;;;;;5030966;28;20290;-77
2022/11/07 02:19:49;;;;;;;;;;;;;;;;;;5016000;28;19956;-76
2022/11/07 02:22:14;;;;;;;;;;;;;;;;;;5031019;28;19914;-77
2022/11/07 02:24:40;;;;;;;;;;;;;;;;;;5031095;28;19913;-77
2022/11/07 02:27:06;;;;;;;;;;;;;;;;;;5016034;28;19932;-77
2022/11/07 02:29:32;;;;;;;;;;;;;;;;;;5031100;28;19909;-78
2022/11/07 02:31:58;;;;;;;;;;;;;;;;;;5031207;28;19963;-77
2022/11/07 02:34:24;;;;;;;;;;;;;;;;;;5015539;28;19952;-77
2022/11/07 02:36:50;;;;;;;;;;;;;;;;;;5030583;28;19920;-77
2022/11/07 02:39:16;;;;;;;;;;;;;;;;;;5030770;28;19909;-77
2022/11/07 02:41:41;;;;;;;;;;;;;;;;;;5029701;28;19913;-77
2022/11/07 02:44:07;;;;;;;;;;;;;;;;;;5030665;28;19996;-77
2022/11/07 02:46:33;;;;;;;;;;;;;;;;;;5030608;28;19929;-77
2022/11/07 02:48:59;;;;;;;;;;;;;;;;;;5030690;28;19906;-78
2022/11/07 02:51:25;;;;;;;;;;;;;;;;;;5031001;28;19910;-77
2022/11/07 02:53:51;;;;;;;;;;;;;;;;;;5030542;28;19990;-78
2022/11/07 02:56:17;;;;;;;;;;;;;;;;;;5014955;28;19932;-77
2022/11/07 02:58:43;;;;;;;;;;;;;;;;;;5015017;28;20004;-76
2022/11/07 03:01:09;;;;;;;;;;;;;;;;;;5030461;28;19919;-76
2022/11/07 03:03:34;;;;;;;;;;;;;;;;;;5015006;28;19909;-75
2022/11/07 03:06:01;;;;;;;;;;;;;;;;;;5015093;28;19938;-77
2022/11/07 03:08:27;;;;;;;;;;;;;;;;;;5030341;28;20020;-76
2022/11/07 03:10:52;;;;;;;;;;;;;;;;;;5030048;28;20377;-77
2022/11/07 03:13:18;;;;;;;;;;;;;;;;;;5014176;28;19972;-76
2022/11/07 03:15:44;;;;;;;;;;;;;;;;;;5014400;28;19915;-77
2022/11/07 03:18:10;;;;;;;;;;;;;;;;;;5030253;28;19913;-78
2022/11/07 03:20:36;;;;;;;;;;;;;;;;;;5030051;28;19909;-77
2022/11/07 03:23:02;;;;;;;;;;;;;;;;;;5029770;28;20401;-77
2022/11/07 03:25:28;;;;;;;;;;;;;;;;;;5014500;28;20051;-77
2022/11/07 03:27:54;;;;;;;;;;;;;;;;;;5029535;28;19925;-77
2022/11/07 03:30:20;;;;;;;;;;;;;;;;;;5014206;28;19914;-77
2022/11/07 03:32:46;;;;;;;;;;;;;;;;;;5014257;28;19909;-77
2022/11/07 03:35:12;;;;;;;;;;;;;;;;;;5029688;28;19909;-77
2022/11/07 03:37:38;;;;;;;;;;;;;;;;;;5029537;28;19917;-77
2022/11/07 03:40:03;;;;;;;;;;;;;;;;;;5029477;28;19963;-78
2022/11/07 03:42:29;;;;;;;;;;;;;;;;;;5029332;28;20317;-76
2022/11/07 03:44:55;;;;;;;;;;;;;;;;;;5029391;28;19909;-76
2022/11/07 03:47:21;;;;;;;;;;;;;;;;;;5014153;28;20330;-77
2022/11/07 03:49:47;;;;;;;;;;;;;;;;;;5029290;28;19916;-78
2022/11/07 03:52:13;;;;;;;;;;;;;;;;;;5014158;28;19980;-76
2022/11/07 03:54:39;;;;;;;;;;;;;;;;;;5029480;28;19909;-77
2022/11/07 03:57:04;;;;;;;;;;;;;;;;;;5014105;28;19976;-77
2022/11/07 03:59:30;;;;;;;;;;;;;;;;;;5014127;28;19967;-77
2022/11/07 04:01:56;;;;;;;;;;;;;;;;;;5029243;28;19913;-77
2022/11/07 04:04:22;;;;;;;;;;;;;;;;;;5029325;28;20400;-76
2022/11/07 04:06:48;;;;;;;;;;;;;;;;;;5028764;28;19910;-77
2022/11/07 04:09:14;;;;;;;;;;;;;;;;;;5014081;28;19910;-76
2022/11/07 04:17:18;;;;;;;;;;;;;;;;;;5014045;28;19963;-75
2022/11/07 04:19:44;;;;;;;;;;;;;;;;;;5029100;28;20382;-76
2022/11/07 04:22:10;;;;;;;;;;;;;;;;;;5029270;28;19924;-77
2022/11/07 04:24:36;;;;;;;;;;;;;;;;;;5029290;28;19916;-77
2022/11/07 04:29:46;;;;;;;;;;;;;;;;;;5014403;28;19916;-77
2022/11/07 04:32:12;;;;;;;;;;;;;;;;;;5013539;28;19909;-76
2022/11/07 04:34:38;;;;;;;;;;;;;;;;;;5028537;28;20359;-77
2022/11/07 04:37:04;;;;;;;;;;;;;;;;;;5029566;28;19956;-77
2022/11/07 04:39:30;;;;;;;;;;;;;;;;;;5028960;28;19929;-76
2022/11/07 04:41:56;;;;;;;;;;;;;;;;;;5013097;28;19914;-77
2022/11/07 04:44:22;;;;;;;;;;;;;;;;;;5028865;28;19916;-75
2022/11/07 04:46:47;;;;;;;;;;;;;;;;;;5028901;28;20409;-76
2022/11/07 04:49:16;;;;;;;;;;;;;;;;;;5013574;28;19917;-75
2022/11/07 04:51:42;;;;;;;;;;;;;;;;;;5028847;28;19905;-76
2022/11/07 04:54:08;;;;;;;;;;;;;;;;;;5028144;28;20055;-78
2022/11/07 04:56:34;;;;;;;;;;;;;;;;;;5028314;28;19913;-78
2022/11/07 04:59:00;;;;;;;;;;;;;;;;;;5028159;28;19953;-77
2022/11/07 05:01:26;;;;;;;;;;;;;;;;;;5028384;28;19914;-76
2022/11/07 05:03:51;;;;;;;;;;;;;;;;;;5029048;28;19909;-76
2022/11/07 05:06:18;;;;;;;;;;;;;;;;;;5032064;28;19909;-76
2022/11/07 05:08:44;;;;;;;;;;;;;;;;;;5032121;28;19914;-76
2022/11/07 05:11:10;;;;;;;;;;;;;;;;;;5032362;28;19963;-77
2022/11/07 05:13:35;;;;;;;;;;;;;;;;;;5016265;28;19925;-76
2022/11/07 05:16:01;;;;;;;;;;;;;;;;;;5031973;28;20004;-77
2022/11/07 05:18:27;;;;;;;;;;;;;;;;;;5031848;28;20354;-76
2022/11/07 05:20:53;;;;;;;;;;;;;;;;;;5031889;28;19995;-77
2022/11/07 05:23:20;;;;;;;;;;;;;;;;;;5031826;28;19909;-78
2022/11/07 05:25:47;;;;;;;;;;;;;;;;;;5031702;28;19959;-76
2022/11/07 05:28:13;;;;;;;;;;;;;;;;;;5031840;28;19960;-77
2022/11/07 05:30:39;;;;;;;;;;;;;;;;;;5031649;28;19909;-78
2022/11/07 05:33:05;;;;;;;;;;;;;;;;;;5031657;28;19909;-77
2022/11/07 05:35:31;;;;;;;;;;;;;;;;;;5031317;28;19932;-77
2022/11/07 05:37:57;;;;;;;;;;;;;;;;;;5016132;28;19964;-77
2022/11/07 05:40:23;;;;;;;;;;;;;;;;;;5031720;28;20004;-76
2022/11/07 05:42:49;;;;;;;;;;;;;;;;;;5016548;28;19914;-75
2022/11/07 05:45:15;;;;;;;;;;;;;;;;;;5016580;28;20012;-77
2022/11/07 05:47:41;;;;;;;;;;;;;;;;;;5015917;28;19913;-76
2022/11/07 05:50:06;;;;;;;;;;;;;;;;;;5016317;28;20374;-77
2022/11/07 05:52:32;;;;;;;;;;;;;;;;;;5031216;28;19909;-78
2022/11/07 05:54:58;;;;;;;;;;;;;;;;;;5031210;28;20273;-77
2022/11/07 05:57:24;;;;;;;;;;;;;;;;;;5015861;28;19945;-76
2022/11/07 05:59:50;;;;;;;;;;;;;;;;;;5031539;28;20259;-76
2022/11/07 06:02:16;;;;;;;;;;;;;;;;;;5015520;28;19913;-76
2022/11/07 06:04:42;;;;;;;;;;;;;;;;;;5031069;28;19933;-76
2022/11/07 06:07:08;;;;;;;;;;;;;;;;;;5031345;28;20011;-76
2022/11/07 06:09:33;;;;;;;;;;;;;;;;;;5015427;28;19909;-75
2022/11/07 06:12:02;;;;;;;;;;;;;;;;;;5015601;28;20425;-77
2022/11/07 06:14:28;;;;;;;;;;;;;;;;;;5030468;28;19979;-77
2022/11/07 06:16:54;;;;;;;;;;;;;;;;;;5029520;28;20333;-77
2022/11/07 06:19:20;;;;;;;;;;;;;;;;;;5015557;28;20027;-78
2022/11/07 06:21:46;;;;;;;;;;;;;;;;;;5030744;28;19998;-77
2022/11/07 06:24:12;;;;;;;;;;;;;;;;;;5030633;28;19956;-78
2022/11/07 06:26:38;;;;;;;;;;;;;;;;;;5030805;28;19913;-78
2022/11/07 06:29:04;;;;;;;;;;;;;;;;;;5015570;28;19905;-78
2022/11/07 06:31:29;;;;;;;;;;;;;;;;;;5015349;28;19917;-77
2022/11/07 06:33:55;;;;;;;;;;;;;;;;;;5015130;28;20370;-77
2022/11/07 06:36:21;;;;;;;;;;;;;;;;;;5014967;28;19909;-78
2022/11/07 06:38:47;;;;;;;;;;;;;;;;;;5030095;28;20366;-76
2022/11/07 06:41:13;;;;;;;;;;;;;;;;;;5030135;28;19905;-79
2022/11/07 06:43:39;;;;;;;;;;;;;;;;;;5015894;28;19910;-76
2022/11/07 06:46:05;;;;;;;;;;;;;;;;;;5030207;28;19936;-76
2022/11/07 06:48:31;;;;;;;;;;;;;;;;;;5015866;28;19910;-76
2022/11/07 06:50:57;;;;;;;;;;;;;;;;;;5017576;28;20448;-76
2022/11/07 06:53:23;;;;;;;;;;;;;;;;;;5015269;28;20012;-76
2022/11/07 06:55:49;;;;;;;;;;;;;;;;;;5016955;28;19916;-78
2022/11/07 06:58:15;;;;;;;;;;;;;;;;;;5014797;28;19909;-76
2022/11/07 07:00:41;;;;;;;;;;;;;;;;;;5014049;28;19948;-78
2022/11/07 07:03:07;;;;;;;;;;;;;;;;;;5014829;28;20008;-77
2022/11/07 07:05:33;;;;;;;;;;;;;;;;;;5015701;28;19913;-78
2022/11/07 07:07:58;;;;;;;;;;;;;;;;;;5013267;28;19917;-78
2022/11/07 07:10:24;;;;;;;;;;;;;;;;;;5014504;28;19910;-78
2022/11/07 07:12:50;;;;;;;;;;;;;;;;;;5013053;28;19921;-77
2022/11/07 07:15:16;;;;;;;;;;;;;;;;;;5014513;28;20047;-76
2022/11/07 07:17:42;;;;;;;;;;;;;;;;;;5014808;28;20277;-77
2022/11/07 07:20:08;;;;;;;;;;;;;;;;;;5014378;28;19916;-76
2022/11/07 07:22:34;;;;;;;;;;;;;;;;;;5013108;28;19914;-77
2022/11/07 07:25:00;;;;;;;;;;;;;;;;;;5013021;28;20290;-78
2022/11/07 07:27:26;;;;;;;;;;;;;;;;;;5012574;28;19964;-76
2022/11/07 07:29:52;;;;;;;;;;;;;;;;;;5013239;28;19909;-78
2022/11/07 07:32:18;;;;;;;;;;;;;;;;;;5013127;28;19916;-78
2022/11/07 07:34:44;;;;;;;;;;;;;;;;;;5013993;28;19909;-78
2022/11/07 07:37:10;;;;;;;;;;;;;;;;;;5012865;28;19918;-80
2022/11/07 07:39:35;;;;;;;;;;;;;;;;;;5012748;28;19910;-76
2022/11/07 07:42:01;;;;;;;;;;;;;;;;;;5012229;28;19920;-77
2022/11/07 07:44:27;;;;;;;;;;;;;;;;;;5014262;28;19914;-78
2022/11/07 07:46:53;;;;;;;;;;;;;;;;;;5013312;28;19917;-79
2022/11/07 07:49:19;;;;;;;;;;;;;;;;;;5028957;28;20277;-77
2022/11/07 07:51:45;;;;;;;;;;;;;;;;;;5013993;28;20008;-77
2022/11/07 07:54:11;;;;;;;;;;;;;;;;;;5028674;28;19917;-78
2022/11/07 07:56:37;;;;;;;;;;;;;;;;;;5012673;28;19910;-78
2022/11/07 07:59:03;;;;;;;;;;;;;;;;;;5028694;28;19910;-77
2022/11/07 08:01:29;;;;;;;;;;;;;;;;;;5013511;28;19914;-78
2022/11/07 08:03:54;;;;;;;;;;;;;;;;;;5013494;28;19909;-77
2022/11/07 08:06:20;;;;;;;;;;;;;;;;;;5028182;28;19964;-78
2022/11/07 08:08:46;;;;;;;;;;;;;;;;;;5028378;28;19909;-78
2022/11/07 08:11:14;;;;;;;;;;;;;;;;;;5013257;28;19909;-78
2022/11/07 08:13:40;;;;;;;;;;;;;;;;;;5028380;28;19952;-78
2022/11/07 08:16:06;;;;;;;;;;;;;;;;;;5027951;28;19909;-78
2022/11/07 08:18:35;;;;;;;;;;;;;;;;;;5013244;28;20374;-78
2022/11/07 08:21:01;;;;;;;;;;;;;;;;;;5028566;28;20041;-77
2022/11/07 08:23:27;;;;;;;;;;;;;;;;;;5028159;28;20352;-77
2022/11/07 08:25:53;;;;;;;;;;;;;;;;;;5012981;28;19917;-78
2022/11/07 08:28:19;;;;;;;;;;;;;;;;;;5028148;28;20039;-78
2022/11/07 08:30:45;;;;;;;;;;;;;;;;;;5028287;28;19910;-77
2022/11/07 08:33:11;;;;;;;;;;;;;;;;;;5013056;28;19914;-78
2022/11/07 08:35:37;;;;;;;;;;;;;;;;;;5012720;28;19910;-77
2022/11/07 08:38:05;;;;;;;;;;;;;;;;;;5027597;28;19932;-78
2022/11/07 08:40:31;;;;;;;;;;;;;;;;;;5028058;28;19913;-78
2022/11/07 08:42:57;;;;;;;;;;;;;;;;;;5012804;28;19913;-79
2022/11/07 08:45:23;;;;;;;;;;;;;;;;;;5028169;28;19913;-76
2022/11/07 08:47:49;;;;;;;;;;;;;;;;;;5012485;28;19960;-77
2022/11/07 08:50:15;;;;;;;;;;;;;;;;;;5029187;28;19913;-75
2022/11/07 08:52:40;;;;;;;;;;;;;;;;;;5028951;28;20382;-78
2022/11/07 08:55:06;;;;;;;;;;;;;;;;;;5028210;28;19963;-77
2022/11/07 08:57:32;;;;;;;;;;;;;;;;;;5027846;28;19910;-77
2022/11/07 08:59:58;;;;;;;;;;;;;;;;;;5028033;28;19909;-78
2022/11/07 09:02:24;;;;;;;;;;;;;;;;;;5028192;28;19914;-77
2022/11/07 09:04:50;;;;;;;;;;;;;;;;;;5027785;28;19917;-79
2022/11/07 09:07:16;;;;;;;;;;;;;;;;;;5026814;28;19914;-78
2022/11/07 09:09:42;;;;;;;;;;;;;;;;;;5012630;28;19916;-79
2022/11/07 09:12:08;;;;;;;;;;;;;;;;;;5024746;28;20346;-78
2022/11/07 09:14:33;;;;;;;;;;;;;;;;;;5027557;28;19924;-78
2022/11/07 09:16:59;;;;;;;;;;;;;;;;;;5012603;28;19909;-79
2022/11/07 09:19:25;;;;;;;;;;;;;;;;;;5027968;28;19956;-81
2022/11/07 09:21:51;;;;;;;;;;;;;;;;;;5030228;28;20383;-79
2022/11/07 09:24:17;;;;;;;;;;;;;;;;;;5028412;28;20428;-79
2022/11/07 09:26:43;;;;;;;;;;;;;;;;;;5027818;28;20377;-78
2022/11/07 09:29:09;;;;;;;;;;;;;;;;;;5023980;28;19914;-78
2022/11/07 09:31:35;;;;;;;;;;;;;;;;;;5027677;28;19921;-79
2022/11/07 09:34:01;;;;;;;;;;;;;;;;;;5012817;28;20385;-78
2022/11/07 09:36:26;;;;;;;;;;;;;;;;;;5010593;28;19964;-79
2022/11/07 09:38:55;;;;;;;;;;;;;;;;;;5011211;28;19992;-79
2022/11/07 09:41:20;;;;;;;;;;;;;;;;;;5011632;28;19920;-79
2022/11/07 09:43:46;;;;;;;;;;;;;;;;;;5012759;28;19997;-78
2022/11/07 09:46:12;;;;;;;;;;;;;;;;;;5012022;28;20388;-79
2022/11/07 09:48:38;;;;;;;;;;;;;;;;;;5011438;28;19920;-79
2022/11/07 09:51:04;;;;;;;;;;;;;;;;;;5014123;28;19916;-79
2022/11/07 09:53:30;;;;;;;;;;;;;;;;;;5016127;28;19910;-78
2022/11/07 09:55:56;;;;;;;;;;;;;;;;;;5016189;28;19922;-79
2022/11/07 09:58:22;;;;;;;;;;;;;;;;;;5015676;28;19960;-77
2022/11/07 10:00:48;;;;;;;;;;;;;;;;;;5015769;28;19924;-78
2022/11/07 10:03:14;;;;;;;;;;;;;;;;;;5015315;28;19972;-77
2022/11/07 10:05:39;;;;;;;;;;;;;;;;;;5015909;28;19910;-76
2022/11/07 10:08:05;;;;;;;;;;;;;;;;;;5013728;28;19916;-75
2022/11/07 10:10:31;;;;;;;;;;;;;;;;;;5015890;28;19921;-76
2022/11/07 10:12:57;;;;;;;;;;;;;;;;;;4998304;28;19991;-77
2022/11/07 10:15:23;;;;;;;;;;;;;;;;;;5016322;28;19984;-76
2022/11/07 10:17:49;;;;;;;;;;;;;;;;;;4998167;28;19909;-77
2022/11/07 10:20:15;;;;;;;;;;;;;;;;;;4998376;28;20366;-77
2022/11/07 10:22:41;;;;;;;;;;;;;;;;;;4998444;28;20396;-77
2022/11/07 10:25:07;;;;;;;;;;;;;;;;;;4999869;28;19910;-77
2022/11/07 10:27:33;;;;;;;;;;;;;;;;;;4992128;28;19964;-76
2022/11/07 10:29:59;;;;;;;;;;;;;;;;;;5011389;28;19921;-76
2022/11/07 10:32:25;;;;;;;;;;;;;;;;;;5023146;28;19917;-78
2022/11/07 10:34:51;;;;;;;;;;;;;;;;;;5007408;28;19913;-77
2022/11/07 10:37:16;;;;;;;;;;;;;;;;;;5017201;28;19910;-77
2022/11/07 10:39:42;;;;;;;;;;;;;;;;;;5011189;28;19961;-76
2022/11/07 10:42:08;;;;;;;;;;;;;;;;;;5011914;28;19917;-75
2022/11/07 10:44:34;;;;;;;;;;;;;;;;;;4996530;28;20355;-76
2022/11/07 10:47:02;;;;;;;;;;;;;;;;;;5012297;28;20026;-77
2022/11/07 10:49:28;;;;;;;;;;;;;;;;;;5011853;28;19949;-75
2022/11/07 10:51:54;;;;;;;;;;;;;;;;;;5022669;28;19920;-76
2022/11/07 10:54:20;;;;;;;;;;;;;;;;;;5029745;28;19944;-77
2022/11/07 10:56:46;;;;;;;;;;;;;;;;;;4998099;28;19913;-78
2022/11/07 10:59:12;;;;;;;;;;;;;;;;;;5015239;28;20000;-76
2022/11/07 11:01:38;;;;;;;;;;;;;;;;;;5016106;28;19921;-77
2022/11/07 11:04:04;;;;;;;;;;;;;;;;;;5015557;28;19909;-77
2022/11/07 11:06:30;;;;;;;;;;;;;;;;;;4999130;28;20425;-74
2022/11/07 11:08:56;;;;;;;;;;;;;;;;;;5010352;28;20057;-76
2022/11/07 11:11:22;;;;;;;;;;;;;;;;;;5014035;28;19975;-76
2022/11/07 11:13:48;;;;;;;;;;;;;;;;;;5029318;28;19917;-75
2022/11/07 11:16:14;;;;;;;;;;;;;;;;;;5015259;28;19910;-77
2022/11/07 11:18:40;;;;;;;;;;;;;;;;;;5030771;28;19909;-77
2022/11/07 11:21:06;;;;;;;;;;;;;;;;;;5015529;28;19913;-76
2022/11/07 11:23:32;;;;;;;;;;;;;;;;;;5030203;28;20333;-77
2022/11/07 11:25:58;;;;;;;;;;;;;;;;;;5015351;28;20374;-76
2022/11/07 11:28:24;;;;;;;;;;;;;;;;;;5031163;28;19911;-78
2022/11/07 11:30:50;;;;;;;;;;;;;;;;;;5014822;28;20294;-75
2022/11/07 11:33:16;;;;;;;;;;;;;;;;;;5009434;28;20001;-77
2022/11/07 11:35:41;;;;;;;;;;;;;;;;;;4996536;28;19917;-76
2022/11/07 11:38:07;;;;;;;;;;;;;;;;;;5002833;28;20314;-75
2022/11/07 11:40:33;;;;;;;;;;;;;;;;;;5004203;28;19909;-75
2022/11/07 11:42:59;;;;;;;;;;;;;;;;;;5027432;28;20386;-77
2022/11/07 11:45:25;;;;;;;;;;;;;;;;;;5029639;28;19957;-77
2022/11/07 11:47:51;;;;;;;;;;;;;;;;;;5007966;28;19918;-77
2022/11/07 11:50:17;;;;;;;;;;;;;;;;;;5000871;28;19920;-77
2022/11/07 11:52:43;;;;;;;;;;;;;;;;;;5031388;28;19916;-75
2022/11/07 11:55:09;;;;;;;;;;;;;;;;;;5030735;28;19940;-76
2022/11/07 11:57:34;;;;;;;;;;;;;;;;;;5016157;28;19965;-76
2022/11/07 12:00:01;;;;;;;;;;;;;;;;;;5015399;28;19910;-76
2022/11/07 12:02:27;;;;;;;;;;;;;;;;;;5031457;28;19918;-75
2022/11/07 12:04:53;;;;;;;;;;;;;;;;;;5031527;28;20377;-76
2022/11/07 12:07:19;;;;;;;;;;;;;;;;;;5030767;28;19921;-76
2022/11/07 12:09:44;;;;;;;;;;;;;;;;;;5015521;28;19910;-76
2022/11/07 12:12:11;;;;;;;;;;;;;;;;;;5031913;28;19910;-76
2022/11/07 12:14:37;;;;;;;;;;;;;;;;;;5015729;28;19913;-76
2022/11/07 12:17:03;;;;;;;;;;;;;;;;;;5015326;28;19910;-76
2022/11/07 12:19:28;;;;;;;;;;;;;;;;;;5030465;28;19909;-76
2022/11/07 12:21:54;;;;;;;;;;;;;;;;;;5014574;28;19921;-77
2022/11/07 12:24:20;;;;;;;;;;;;;;;;;;5028491;28;20000;-75
2022/11/07 12:26:46;;;;;;;;;;;;;;;;;;5003791;28;19984;-75
2022/11/07 12:29:12;;;;;;;;;;;;;;;;;;4993199;28;19922;-76
2022/11/07 12:31:38;;;;;;;;;;;;;;;;;;4993215;28;19933;-75
2022/11/07 12:34:04;;;;;;;;;;;;;;;;;;4993069;28;20286;-76
2022/11/07 12:36:32;;;;;;;;;;;;;;;;;;5015660;28;19921;-75
2022/11/07 12:38:58;;;;;;;;;;;;;;;;;;5016503;28;19910;-76
2022/11/07 12:41:24;;;;;;;;;;;;;;;;;;5004035;28;19932;-75
2022/11/07 12:43:50;;;;;;;;;;;;;;;;;;5012412;28;19981;-76
2022/11/07 12:46:16;;;;;;;;;;;;;;;;;;5012146;28;19916;-75
2022/11/07 12:48:42;;;;;;;;;;;;;;;;;;5027268;28;19909;-75
2022/11/07 12:51:08;;;;;;;;;;;;;;;;;;5027496;28;19914;-76
2022/11/07 12:53:34;;;;;;;;;;;;;;;;;;5027770;28;19909;-76
2022/11/07 12:56:00;;;;;;;;;;;;;;;;;;5027669;28;19924;-76
2022/11/07 12:58:25;;;;;;;;;;;;;;;;;;5003594;28;20445;-76
2022/11/07 13:00:51;;;;;;;;;;;;;;;;;;4994716;28;19921;-76
2022/11/07 13:03:17;;;;;;;;;;;;;;;;;;4992812;28;19914;-76
2022/11/07 13:05:43;;;;;;;;;;;;;;;;;;4992151;28;19964;-76
2022/11/07 13:08:09;;;;;;;;;;;;;;;;;;4992654;28;19910;-76
2022/11/07 13:10:35;;;;;;;;;;;;;;;;;;4992814;28;19910;-76
2022/11/07 13:13:01;;;;;;;;;;;;;;;;;;4991961;28;19918;-75
2022/11/07 13:15:27;;;;;;;;;;;;;;;;;;4992400;28;19910;-76
2022/11/07 13:17:53;;;;;;;;;;;;;;;;;;4992369;28;19910;-75
2022/11/07 13:20:18;;;;;;;;;;;;;;;;;;5006846;28;19913;-75
2022/11/07 13:22:44;;;;;;;;;;;;;;;;;;4992099;28;19921;-75
2022/11/07 13:25:10;;;;;;;;;;;;;;;;;;4993184;28;19980;-75
2022/11/07 13:27:36;;;;;;;;;;;;;;;;;;5005728;28;20008;-75
2022/11/07 13:30:02;;;;;;;;;;;;;;;;;;5031284;28;19909;-75
2022/11/07 13:32:28;;;;;;;;;;;;;;;;;;5030666;28;19910;-76
2022/11/07 13:34:55;;;;;;;;;;;;;;;;;;5015899;28;19909;-76
2022/11/07 13:37:20;;;;;;;;;;;;;;;;;;5031100;28;19910;-76
2022/11/07 13:39:46;;;;;;;;;;;;;;;;;;5015938;28;19916;-76
2022/11/07 13:42:12;;;;;;;;;;;;;;;;;;5031276;28;19917;-76
2022/11/07 13:44:38;;;;;;;;;;;;;;;;;;5000754;28;20029;-76
2022/11/07 13:47:04;;;;;;;;;;;;;;;;;;4996311;28;19913;-76
2022/11/07 13:49:30;;;;;;;;;;;;;;;;;;5014389;28;19917;-76
2022/11/07 13:51:56;;;;;;;;;;;;;;;;;;5017538;28;19937;-77
2022/11/07 13:54:26;;;;;;;;;;;;;;;;;;5003305;28;19956;-78
2022/11/07 13:56:52;;;;;;;;;;;;;;;;;;5004934;28;19969;-77
2022/11/07 13:59:17;;;;;;;;;;;;;;;;;;5004149;28;19944;-77
2022/11/07 14:01:43;;;;;;;;;;;;;;;;;;5003959;28;19920;-77
2022/11/07 14:04:09;;;;;;;;;;;;;;;;;;5034382;28;19910;-78
2022/11/07 14:06:35;;;;;;;;;;;;;;;;;;5005921;28;19910;-78
2022/11/07 14:09:01;;;;;;;;;;;;;;;;;;4989358;28;19922;-76
2022/11/07 14:11:27;;;;;;;;;;;;;;;;;;5004075;28;20399;-76
2022/11/07 14:13:53;;;;;;;;;;;;;;;;;;5019165;28;19914;-77
2022/11/07 14:16:19;;;;;;;;;;;;;;;;;;5004214;28;19910;-77
2022/11/07 14:18:45;;;;;;;;;;;;;;;;;;5004230;28;19910;-76
2022/11/07 14:21:11;;;;;;;;;;;;;;;;;;5019732;28;20048;-78
2022/11/07 14:23:37;;;;;;;;;;;;;;;;;;5021267;28;19953;-78
2022/11/07 14:26:03;;;;;;;;;;;;;;;;;;5012900;28;19910;-80
2022/11/07 14:28:29;;;;;;;;;;;;;;;;;;5010944;28;19996;-78
2022/11/07 14:30:54;;;;;;;;;;;;;;;;;;5011019;28;19941;-78
2022/11/07 14:33:20;;;;;;;;;;;;;;;;;;5010882;28;19956;-79
2022/11/07 14:35:46;;;;;;;;;;;;;;;;;;5010390;28;19909;-78
2022/11/07 14:38:12;;;;;;;;;;;;;;;;;;5010754;28;19910;-80
2022/11/07 14:40:38;;;;;;;;;;;;;;;;;;4996013;28;19909;-80
2022/11/07 14:43:04;;;;;;;;;;;;;;;;;;5010896;28;20341;-81
2022/11/07 14:45:30;;;;;;;;;;;;;;;;;;5011122;28;20369;-80
2022/11/07 14:47:56;;;;;;;;;;;;;;;;;;4996015;28;19914;-80
2022/11/07 14:52:50;;;;;;;;;;;;;;;;;;5015827;28;19910;-80
2022/11/07 14:55:19;;;;;;;;;;;;;;;;;;5015925;28;19978;-81
2022/11/07 14:57:45;;;;;;;;;;;;;;;;;;5030416;28;19955;-81
2022/11/07 15:00:11;;;;;;;;;;;;;;;;;;5030464;28;19921;-80
2022/11/07 15:02:36;;;;;;;;;;;;;;;;;;4999571;28;20382;-79
2022/11/07 15:05:02;;;;;;;;;;;;;;;;;;5010557;28;19914;-79
2022/11/07 15:07:28;;;;;;;;;;;;;;;;;;5010057;28;20386;-78
2022/11/07 15:09:54;;;;;;;;;;;;;;;;;;5017977;28;19920;-79
2022/11/07 15:12:20;;;;;;;;;;;;;;;;;;5029856;28;19909;-79
2022/11/07 15:14:46;;;;;;;;;;;;;;;;;;5029880;28;19967;-79
2022/11/07 15:17:12;;;;;;;;;;;;;;;;;;5029718;28;20013;-79
2022/11/07 15:19:38;;;;;;;;;;;;;;;;;;5014280;28;19967;-79
2022/11/07 15:22:04;;;;;;;;;;;;;;;;;;5029610;28;19964;-77
2022/11/07 15:24:30;;;;;;;;;;;;;;;;;;5029474;28;19910;-79
2022/11/07 15:26:55;;;;;;;;;;;;;;;;;;5029655;28;20004;-79
2022/11/07 15:29:21;;;;;;;;;;;;;;;;;;5014528;28;19913;-79
2022/11/07 15:31:47;;;;;;;;;;;;;;;;;;5029849;28;19924;-79
2022/11/07 15:34:15;;;;;;;;;;;;;;;;;;5029324;28;19910;-78
2022/11/07 15:36:41;;;;;;;;;;;;;;;;;;5012223;28;19913;-76
2022/11/07 15:39:07;;;;;;;;;;;;;;;;;;5013125;28;20000;-77
2022/11/07 15:41:33;;;;;;;;;;;;;;;;;;5015279;28;19953;-78
2022/11/07 15:43:59;;;;;;;;;;;;;;;;;;5013058;28;19957;-79
2022/11/07 15:46:25;;;;;;;;;;;;;;;;;;5013023;28;19916;-77
2022/11/07 15:48:51;;;;;;;;;;;;;;;;;;5014332;28;19909;-76
2022/11/07 15:51:17;;;;;;;;;;;;;;;;;;5004662;28;19914;-77
2022/11/07 15:53:42;;;;;;;;;;;;;;;;;;5012541;28;19910;-76
2022/11/07 15:56:08;;;;;;;;;;;;;;;;;;5014623;28;19921;-77
2022/11/07 15:58:34;;;;;;;;;;;;;;;;;;5009227;28;20295;-77
2022/11/07 16:01:00;;;;;;;;;;;;;;;;;;4994302;28;19910;-77
2022/11/07 16:03:26;;;;;;;;;;;;;;;;;;4996072;28;19920;-78
2022/11/07 16:05:52;;;;;;;;;;;;;;;;;;5009269;28;19914;-76
2022/11/07 16:08:18;;;;;;;;;;;;;;;;;;5016240;28;19965;-77
2022/11/07 16:10:45;;;;;;;;;;;;;;;;;;5019173;28;20370;-79
2022/11/07 16:13:10;;;;;;;;;;;;;;;;;;5045905;23;19972;-77
2022/11/07 16:15:38;;;;;;;;;;;;;;;;;;5052215;28;20399;-77
2022/11/07 16:18:04;;;;;;;;;;;;;;;;;;5053228;28;19909;-76
2022/11/07 16:20:32;;;;;;;;;;;;;;;;;;5058874;28;19913;-75
2022/11/07 16:22:58;;;;;;;;;;;;;;;;;;5031211;28;19913;-74
2022/11/07 16:25:24;;;;;;;;;;;;;;;;;;5032685;28;19915;-75
2022/11/07 16:27:50;;;;;;;;;;;;;;;;;;5053007;28;19909;-76
2022/11/07 16:30:16;;;;;;;;;;;;;;;;;;5068759;28;19909;-77
2022/11/07 16:32:42;;;;;;;;;;;;;;;;;;5053974;28;19958;-79
2022/11/07 16:35:08;;;;;;;;;;;;;;;;;;5052540;28;20320;-75
2022/11/07 16:37:34;;;;;;;;;;;;;;;;;;5052858;28;19908;-77
2022/11/07 16:39:59;;;;;;;;;;;;;;;;;;5055073;28;19970;-80
2022/11/07 16:42:25;;;;;;;;;;;;;;;;;;5068414;28;19913;-75
2022/11/07 16:44:51;;;;;;;;;;;;;;;;;;5068124;28;19920;-76
2022/11/07 16:47:18;;;;;;;;;;;;;;;;;;5068395;28;19990;-77
2022/11/07 16:49:44;;;;;;;;;;;;;;;;;;5052343;28;20343;-75